Time;durP1;ratioP1;P1;durP2;ratioP2;P2;SDS_P1;SDS_P2;PMS_P1;PMS_P2;Temp;Humidity;BMP_temperature;BMP_pressure;BME280_temperature;BME280_humidity;BME280_pressure;Samples;Min_cycle;Max_cycle;Signal;HPM_P1;HPM_P2
2022/12/24 00:01:24;;;;;;;15.20;13.80;;;7.00;99.90;;;;;;5050170;28;20213;-86
2022/12/24 00:03:52;;;;;;;14.70;13.25;;;7.10;99.90;;;;;;5049848;28;20209;-86
2022/12/24 00:06:22;;;;;;;11.80;10.73;;;7.20;99.90;;;;;;5050807;28;20209;-85
2022/12/24 00:08:53;;;;;;;7.68;6.97;;;7.40;99.90;;;;;;5050224;28;20209;-86
2022/12/24 00:11:22;;;;;;;5.65;5.10;;;8.00;99.90;;;;;;5050777;28;20210;-85
2022/12/24 00:13:50;;;;;;;5.07;4.60;;;8.50;99.90;;;;;;5050100;28;20205;-86
2022/12/24 00:16:18;;;;;;;4.13;3.70;;;9.00;99.90;;;;;;5050079;28;20264;-85
2022/12/24 00:18:48;;;;;;;3.67;3.10;;;9.20;99.90;;;;;;5047880;28;20236;-85
2022/12/24 00:21:17;;;;;;;6.95;2.33;;;9.40;99.90;;;;;;5029925;28;20226;-84
2022/12/24 00:23:45;;;;;;;1.98;1.77;;;9.60;99.90;;;;;;5029997;28;20221;-84
2022/12/24 00:26:14;;;;;;;1.70;1.58;;;9.70;99.90;;;;;;5029662;28;20234;-85
2022/12/24 00:28:42;;;;;;;1.50;1.40;;;9.80;99.90;;;;;;5030023;28;20268;-85
2022/12/24 00:31:13;;;;;;;1.20;1.10;;;9.80;99.90;;;;;;5033346;28;20214;-85
2022/12/24 00:33:41;;;;;;;2.00;1.70;;;10.10;99.90;;;;;;5052762;28;20269;-84
2022/12/24 00:36:11;;;;;;;2.22;1.17;;;10.20;99.90;;;;;;5055736;28;20237;-84
2022/12/24 00:38:40;;;;;;;0.95;0.95;;;10.20;99.90;;;;;;5055894;28;20213;-84
2022/12/24 00:41:23;;;;;;;1.10;1.00;;;10.20;99.90;;;;;;5049877;28;20213;-84
2022/12/24 00:43:53;;;;;;;0.80;0.80;;;10.30;99.90;;;;;;5035769;28;20293;-86
2022/12/24 00:46:22;;;;;;;0.77;0.77;;;10.30;99.90;;;;;;5045678;28;20217;-85
2022/12/24 00:48:50;;;;;;;0.65;0.65;;;10.40;99.90;;;;;;5055293;28;20237;-87
2022/12/24 00:51:21;;;;;;;1.70;0.80;;;10.40;99.90;;;;;;5055352;28;20210;-85
2022/12/24 00:53:50;;;;;;;0.60;0.60;;;10.40;99.90;;;;;;5055486;28;20267;-85
2022/12/24 00:56:18;;;;;;;0.70;0.70;;;10.60;99.90;;;;;;5055445;28;20236;-85
2022/12/24 00:58:46;;;;;;;0.70;0.70;;;10.60;99.90;;;;;;5055013;28;20241;-85
2022/12/24 01:01:15;;;;;;;0.60;0.60;;;10.50;99.90;;;;;;5055437;28;20297;-85
2022/12/24 01:03:43;;;;;;;0.70;0.70;;;10.60;99.90;;;;;;5055451;28;20265;-84
2022/12/24 01:06:15;;;;;;;0.68;0.68;;;10.60;99.90;;;;;;5055121;28;20233;-84
2022/12/24 01:08:45;;;;;;;1.38;0.82;;;10.60;99.90;;;;;;5054917;28;20209;-85
2022/12/24 01:11:14;;;;;;;0.68;0.68;;;10.70;99.90;;;;;;5055068;28;20216;-84
2022/12/24 01:13:42;;;;;;;0.60;0.60;;;10.70;99.90;;;;;;5055316;28;20210;-85
2022/12/24 01:16:16;;;;;;;0.50;0.50;;;10.80;99.90;;;;;;5055316;28;20210;-85
2022/12/24 01:18:44;;;;;;;1.02;0.40;;;10.70;99.90;;;;;;5055186;28;20243;-85
2022/12/24 01:21:13;;;;;;;0.70;0.70;;;10.70;99.90;;;;;;5054751;28;20306;-85
2022/12/24 01:23:41;;;;;;;1.08;1.02;;;10.80;99.90;;;;;;5054826;28;20216;-85
2022/12/24 01:26:12;;;;;;;0.55;0.55;;;10.70;99.90;;;;;;5054655;28;20230;-85
2022/12/24 01:28:41;;;;;;;0.55;0.55;;;10.80;99.90;;;;;;5055030;28;20202;-85
2022/12/24 01:31:14;;;;;;;0.75;0.60;;;10.80;99.90;;;;;;5055424;28;20210;-85
2022/12/24 01:33:43;;;;;;;1.00;0.68;;;10.80;99.90;;;;;;5055545;28;20202;-85
2022/12/24 01:36:12;;;;;;;0.82;0.82;;;10.80;99.90;;;;;;5055500;28;20234;-85
2022/12/24 01:38:41;;;;;;;0.52;0.52;;;10.70;99.90;;;;;;5055695;28;20209;-85
2022/12/24 01:44:25;;;;;;;0.50;0.50;;;10.80;99.90;;;;;;5055408;28;20296;-85
2022/12/24 01:47:08;;;;;;;0.43;0.43;;;10.90;99.90;;;;;;5055143;28;20202;-85
2022/12/24 01:49:39;;;;;;;0.80;0.70;;;10.90;99.90;;;;;;5055607;28;20213;-85
2022/12/24 01:52:11;;;;;;;0.57;0.57;;;11.00;99.90;;;;;;5055362;28;20205;-85
2022/12/24 01:54:44;;;;;;;0.80;0.80;;;11.10;99.90;;;;;;5055252;28;20232;-86
2022/12/24 01:57:19;;;;;;;0.38;0.38;;;11.10;99.90;;;;;;5055111;28;20213;-85
2022/12/24 01:59:51;;;;;;;0.60;0.60;;;11.30;99.90;;;;;;5055321;28;20225;-84
2022/12/24 02:02:21;;;;;;;0.43;0.43;;;11.30;99.90;;;;;;5055388;28;20201;-84
2022/12/24 02:04:54;;;;;;;0.10;0.10;;;11.40;99.90;;;;;;5054905;28;20308;-84
2022/12/24 02:07:23;;;;;;;0.38;0.38;;;11.40;99.90;;;;;;5055123;28;20208;-84
2022/12/24 02:09:56;;;;;;;0.35;0.35;;;11.40;99.90;;;;;;5055267;28;20202;-84
2022/12/24 02:12:27;;;;;;;1.13;0.35;;;11.40;99.90;;;;;;5054764;28;20220;-84
2022/12/24 02:14:55;;;;;;;0.40;0.40;;;11.30;99.90;;;;;;5054824;28;20214;-84
2022/12/24 02:17:31;;;;;;;0.22;0.22;;;11.20;99.90;;;;;;5054041;28;20216;-85
2022/12/24 02:20:38;;;;;;;1.38;0.65;;;11.10;99.90;;;;;;5054346;28;20208;-86
2022/12/24 02:23:52;;;;;;;0.77;0.57;;;11.10;99.90;;;;;;5023843;28;20219;-85
2022/12/24 02:26:34;;;;;;;0.30;0.28;;;11.10;99.90;;;;;;5054799;28;20209;-84
2022/12/24 02:29:23;;;;;;;0.20;0.20;;;11.10;99.90;;;;;;5054285;28;20201;-85
2022/12/24 02:32:00;;;;;;;0.35;0.35;;;11.00;99.90;;;;;;5054708;28;20197;-85
2022/12/24 02:34:33;;;;;;;0.80;0.50;;;11.00;99.90;;;;;;5054208;28;20265;-84
2022/12/24 02:37:07;;;;;;;0.22;0.22;;;10.90;99.90;;;;;;5054162;28;20204;-84
2022/12/24 02:39:41;;;;;;;0.30;0.30;;;10.80;99.90;;;;;;5054417;28;20200;-85
2022/12/24 02:42:15;;;;;;;0.60;0.60;;;10.80;99.90;;;;;;5054395;28;20201;-85
2022/12/24 02:44:47;;;;;;;0.22;0.22;;;10.80;99.90;;;;;;5054510;28;20230;-86
2022/12/24 02:47:19;;;;;;;0.35;0.35;;;10.80;99.90;;;;;;5053600;28;20218;-85
2022/12/24 02:49:49;;;;;;;0.20;0.20;;;10.90;99.90;;;;;;5053455;28;20198;-85
2022/12/24 02:52:35;;;;;;;0.22;0.22;;;10.80;99.90;;;;;;5054399;28;20210;-85
2022/12/24 02:55:09;;;;;;;0.30;0.30;;;11.00;99.90;;;;;;5054245;28;20225;-85
2022/12/24 02:57:51;;;;;;;0.30;0.30;;;11.10;99.90;;;;;;5053338;28;20208;-85
2022/12/24 03:00:22;;;;;;;0.40;0.40;;;11.00;99.90;;;;;;5054280;28;20206;-86
2022/12/24 03:03:19;;;;;;;0.30;0.30;;;11.00;99.90;;;;;;5054126;28;20285;-86
2022/12/24 03:05:49;;;;;;;0.32;0.32;;;10.90;99.90;;;;;;5053772;28;20245;-84
2022/12/24 03:08:41;;;;;;;0.28;0.28;;;10.80;99.90;;;;;;5052802;28;20198;-83
2022/12/24 03:11:11;;;;;;;0.32;0.30;;;10.80;99.90;;;;;;5054086;28;20213;-83
2022/12/24 03:13:40;;;;;;;0.20;0.20;;;10.80;99.90;;;;;;5053226;28;20205;-83
2022/12/24 03:16:11;;;;;;;0.30;0.30;;;10.90;99.90;;;;;;5053572;28;20232;-84
2022/12/24 03:18:44;;;;;;;0.17;0.17;;;10.90;99.90;;;;;;5053539;28;20194;-84
2022/12/24 03:21:16;;;;;;;0.57;0.57;;;11.00;99.90;;;;;;5053648;28;20202;-84
2022/12/24 03:23:45;;;;;;;0.57;0.57;;;11.10;99.90;;;;;;5053629;28;20218;-84
2022/12/24 03:26:16;;;;;;;0.45;0.30;;;11.10;99.90;;;;;;5053157;28;20222;-84
2022/12/24 03:28:45;;;;;;;0.30;0.30;;;11.10;99.90;;;;;;5052961;28;20206;-84
2022/12/24 03:31:14;;;;;;;0.35;0.35;;;11.10;99.90;;;;;;5033588;28;20205;-84
2022/12/24 03:33:44;;;;;;;0.60;0.60;;;11.20;99.90;;;;;;5049745;28;20214;-84
2022/12/24 03:36:13;;;;;;;0.40;0.40;;;11.20;99.90;;;;;;5053033;28;20239;-83
2022/12/24 03:38:41;;;;;;;0.90;0.90;;;11.20;99.90;;;;;;5052441;28;20253;-84
2022/12/24 03:41:10;;;;;;;10.05;0.60;;;11.20;99.90;;;;;;5052922;28;20201;-84
2022/12/24 03:43:39;;;;;;;0.75;0.70;;;11.30;99.90;;;;;;5053280;28;20288;-84
2022/12/24 03:46:07;;;;;;;0.88;0.88;;;11.40;99.90;;;;;;5053328;28;20225;-84
2022/12/24 03:48:36;;;;;;;1.67;0.95;;;11.40;99.90;;;;;;5052221;28;20208;-84
2022/12/24 03:51:17;;;;;;;1.08;0.75;;;11.40;99.90;;;;;;5053472;28;20252;-83
2022/12/24 03:53:46;;;;;;;0.60;0.60;;;11.30;99.90;;;;;;5053087;28;20231;-84
2022/12/24 03:56:14;;;;;;;0.75;0.57;;;11.30;99.90;;;;;;5052812;28;20221;-84
2022/12/24 03:58:42;;;;;;;0.98;0.82;;;11.20;99.90;;;;;;5052679;28;20208;-84
2022/12/24 04:01:13;;;;;;;0.65;0.65;;;11.20;99.90;;;;;;5053247;28;20208;-84
2022/12/24 04:03:42;;;;;;;0.68;0.68;;;11.20;99.90;;;;;;5053055;28;20198;-84
2022/12/24 04:06:14;;;;;;;0.95;0.80;;;11.20;99.90;;;;;;5053279;28;20229;-83
2022/12/24 04:08:43;;;;;;;1.42;1.33;;;11.20;99.90;;;;;;5053775;28;20198;-84
2022/12/24 04:11:14;;;;;;;1.45;0.80;;;11.10;99.90;;;;;;5056999;28;20209;-84
2022/12/24 04:13:42;;;;;;;0.65;0.65;;;11.10;99.90;;;;;;5056830;28;20197;-83
2022/12/24 04:16:12;;;;;;;0.70;0.70;;;11.10;99.90;;;;;;5056984;28;20217;-84
2022/12/24 04:18:40;;;;;;;0.85;0.70;;;11.10;99.90;;;;;;5056863;28;20284;-84
2022/12/24 04:21:09;;;;;;;1.27;0.80;;;11.20;99.90;;;;;;5057082;28;20210;-84
2022/12/24 04:23:41;;;;;;;0.73;0.73;;;11.30;99.90;;;;;;5056851;28;20231;-83
2022/12/24 04:26:12;;;;;;;0.80;0.80;;;11.20;99.90;;;;;;5056998;28;20244;-83
2022/12/24 04:28:41;;;;;;;0.60;0.60;;;11.40;99.90;;;;;;5056560;28;20212;-82
2022/12/24 04:31:13;;;;;;;0.43;0.43;;;11.50;99.90;;;;;;5056513;28;20204;-84
2022/12/24 04:33:41;;;;;;;0.40;0.40;;;11.50;99.90;;;;;;5056955;28;20210;-84
2022/12/24 04:36:13;;;;;;;0.90;0.90;;;11.50;99.90;;;;;;5055429;28;20242;-84
2022/12/24 04:38:42;;;;;;;0.65;0.65;;;11.40;99.90;;;;;;5055334;28;20305;-85
2022/12/24 04:41:13;;;;;;;0.70;0.70;;;11.30;99.90;;;;;;5055160;28;20201;-84
2022/12/24 04:43:51;;;;;;;0.88;0.68;;;11.40;99.90;;;;;;5055486;28;20292;-85
2022/12/24 04:46:22;;;;;;;0.60;0.52;;;11.40;99.90;;;;;;5055274;28;20229;-85
2022/12/24 04:48:52;;;;;;;0.85;0.40;;;11.40;99.90;;;;;;5054688;28;20268;-85
2022/12/24 04:51:21;;;;;;;0.57;0.57;;;11.40;99.90;;;;;;5035168;28;20212;-85
2022/12/24 04:53:51;;;;;;;0.60;0.60;;;11.30;99.90;;;;;;5036988;28;20210;-85
2022/12/24 04:56:21;;;;;;;0.77;0.77;;;11.30;99.90;;;;;;5055132;28;20230;-85
2022/12/24 04:58:50;;;;;;;0.73;0.57;;;11.40;99.90;;;;;;5054743;28;20212;-85
2022/12/24 05:01:21;;;;;;;0.63;0.60;;;11.40;99.90;;;;;;5054780;28;20217;-84
2022/12/24 05:03:50;;;;;;;0.73;0.73;;;11.30;99.90;;;;;;5035232;28;20199;-85
2022/12/24 05:06:20;;;;;;;0.63;0.63;;;11.30;99.90;;;;;;5034916;28;20226;-84
2022/12/24 05:08:53;;;;;;;0.40;0.40;;;11.30;99.90;;;;;;5043181;28;20198;-85
2022/12/24 05:11:22;;;;;;;0.50;0.50;;;11.30;99.90;;;;;;5054783;28;20284;-84
2022/12/24 05:13:50;;;;;;;0.85;0.80;;;11.20;99.90;;;;;;5054659;28;20202;-83
2022/12/24 05:16:20;;;;;;;1.10;0.80;;;11.30;99.90;;;;;;5054542;28;20238;-85
2022/12/24 05:18:48;;;;;;;0.52;0.52;;;11.20;99.90;;;;;;5054680;28;20194;-84
2022/12/24 05:21:18;;;;;;;1.52;1.08;;;11.20;99.90;;;;;;5053979;28;20263;-84
2022/12/24 05:26:37;;;;;;;0.95;0.80;;;11.00;99.90;;;;;;5054753;28;20272;-85
2022/12/24 05:29:07;;;;;;;0.80;0.80;;;11.00;99.90;;;;;;5054382;28;20210;-84
2022/12/24 05:31:39;;;;;;;0.95;0.80;;;11.00;99.90;;;;;;5054461;28;20208;-84
2022/12/24 05:34:08;;;;;;;1.60;0.93;;;11.00;99.90;;;;;;5012506;28;1183309;-85
2022/12/24 05:36:37;;;;;;;0.82;0.82;;;11.00;99.90;;;;;;5054490;28;20198;-84
2022/12/24 05:39:06;;;;;;;0.88;0.88;;;10.90;99.90;;;;;;5055294;28;20327;-87
2022/12/24 05:41:44;;;;;;;0.70;0.70;;;11.00;99.90;;;;;;5055343;28;20255;-87
2022/12/24 05:44:13;;;;;;;0.88;0.75;;;11.00;99.90;;;;;;5055661;28;20210;-85
2022/12/24 05:46:42;;;;;;;0.65;0.40;;;11.00;99.90;;;;;;5055178;28;20208;-85
2022/12/24 05:49:10;;;;;;;1.00;0.73;;;11.00;99.90;;;;;;5055163;28;20198;-87
2022/12/24 05:51:39;;;;;;;1.13;0.95;;;11.00;99.90;;;;;;5055037;28;20296;-85
2022/12/24 05:54:08;;;;;;;0.68;0.55;;;11.00;99.90;;;;;;5054986;28;20233;-85
2022/12/24 05:56:36;;;;;;;1.48;0.90;;;11.00;99.90;;;;;;5055090;28;20251;-85
2022/12/24 05:59:06;;;;;;;0.50;0.50;;;11.10;99.90;;;;;;5054894;28;20198;-85
2022/12/24 06:01:34;;;;;;;0.60;0.60;;;11.00;99.90;;;;;;5054862;28;20216;-85
2022/12/24 06:04:02;;;;;;;0.80;0.70;;;11.00;99.90;;;;;;5054896;28;20202;-85
2022/12/24 06:06:31;;;;;;;3.03;0.82;;;11.00;99.90;;;;;;5055351;28;20210;-86
2022/12/24 06:08:59;;;;;;;0.52;0.52;;;11.00;99.90;;;;;;5054376;28;20232;-85
2022/12/24 06:11:28;;;;;;;2.05;1.23;;;11.00;99.90;;;;;;5055213;28;20241;-85
2022/12/24 06:13:57;;;;;;;8.55;0.93;;;11.10;99.90;;;;;;5054526;28;20299;-84
2022/12/24 06:16:27;;;;;;;0.63;0.55;;;11.10;99.90;;;;;;5054945;28;20216;-84
2022/12/24 06:18:55;;;;;;;1.42;0.77;;;11.10;99.90;;;;;;5054601;28;20200;-85
2022/12/24 06:21:23;;;;;;;1.25;0.85;;;11.10;99.90;;;;;;5054464;28;20206;-84
2022/12/24 06:23:52;;;;;;;0.80;0.80;;;11.10;99.90;;;;;;5054267;28;20198;-85
2022/12/24 06:26:22;;;;;;;0.60;0.60;;;11.00;99.90;;;;;;5054813;28;20237;-85
2022/12/24 06:28:51;;;;;;;0.80;0.70;;;11.00;99.90;;;;;;5054339;28;20221;-84
2022/12/24 06:31:21;;;;;;;3.15;0.90;;;11.00;99.90;;;;;;5053689;28;20293;-85
2022/12/24 06:33:52;;;;;;;2.88;0.80;;;11.00;99.90;;;;;;5053683;28;20198;-85
2022/12/24 06:36:22;;;;;;;2.13;0.90;;;11.00;99.90;;;;;;5054463;28;20237;-86
2022/12/24 06:38:52;;;;;;;0.80;0.80;;;10.90;99.90;;;;;;5054147;28;20221;-85
2022/12/24 06:41:21;;;;;;;0.73;0.60;;;10.80;99.90;;;;;;5054504;28;20206;-88
2022/12/24 06:43:51;;;;;;;1.42;0.43;;;10.80;99.90;;;;;;5053996;28;20208;-87
2022/12/24 06:46:20;;;;;;;1.00;0.93;;;10.80;99.90;;;;;;5054029;28;20222;-87
2022/12/24 06:48:49;;;;;;;1.42;0.77;;;10.80;99.90;;;;;;5053490;28;20225;-88
2022/12/24 06:51:19;;;;;;;0.93;0.82;;;10.80;99.90;;;;;;5054691;28;20371;-89
2022/12/24 06:53:49;;;;;;;0.95;0.80;;;10.70;99.90;;;;;;5054566;28;20292;-87
2022/12/24 06:56:18;;;;;;;0.82;0.80;;;10.70;99.90;;;;;;5053946;28;20229;-88
2022/12/24 06:58:47;;;;;;;2.35;1.13;;;10.80;99.90;;;;;;5053022;28;20197;-87
2022/12/24 07:01:18;;;;;;;0.82;0.82;;;10.80;99.90;;;;;;5053980;28;20208;-87
2022/12/24 07:03:47;;;;;;;0.80;0.80;;;10.70;99.90;;;;;;5054056;28;20263;-87
2022/12/24 07:06:20;;;;;;;2.38;0.70;;;10.80;99.90;;;;;;5053459;28;20248;-87
2022/12/24 07:08:48;;;;;;;3.53;0.95;;;10.70;99.90;;;;;;5053708;28;20285;-87
2022/12/24 07:11:16;;;;;;;0.77;0.77;;;10.70;99.90;;;;;;5053863;28;20208;-88
2022/12/24 07:13:44;;;;;;;0.70;0.70;;;10.70;99.90;;;;;;5053789;28;20201;-87
2022/12/24 07:16:13;;;;;;;1.27;1.17;;;10.70;99.90;;;;;;5053821;28;20241;-87
2022/12/24 07:18:41;;;;;;;0.57;0.57;;;10.70;99.90;;;;;;5053233;28;20249;-87
2022/12/24 07:21:10;;;;;;;0.70;0.70;;;10.70;99.90;;;;;;5054838;28;20197;-86
2022/12/24 07:23:39;;;;;;;4.55;0.98;;;10.70;99.90;;;;;;5053578;28;20206;-89
2022/12/24 07:26:08;;;;;;;0.88;0.88;;;10.60;99.90;;;;;;5053893;28;20230;-87
2022/12/24 07:28:36;;;;;;;4.32;1.40;;;10.60;99.90;;;;;;5052340;28;20236;-87
2022/12/24 07:31:05;;;;;;;2.00;1.13;;;10.60;99.90;;;;;;5053038;28;20225;-87
2022/12/24 07:33:34;;;;;;;1.23;1.05;;;10.50;99.90;;;;;;5052796;28;20205;-87
2022/12/24 07:36:04;;;;;;;0.90;0.90;;;10.50;99.90;;;;;;5052948;28;20240;-87
2022/12/24 07:38:33;;;;;;;1.50;0.85;;;10.40;99.90;;;;;;5046628;28;20205;-86
2022/12/24 07:41:06;;;;;;;1.13;1.00;;;10.40;99.90;;;;;;5052394;28;20197;-87
2022/12/24 07:43:49;;;;;;;1.08;0.98;;;10.30;99.90;;;;;;5033315;28;20210;-87
2022/12/24 07:46:18;;;;;;;0.63;0.63;;;10.30;99.90;;;;;;5038349;28;20226;-89
2022/12/24 07:48:46;;;;;;;1.25;1.02;;;10.30;99.90;;;;;;5042031;28;20239;-86
2022/12/24 07:51:14;;;;;;;1.48;0.80;;;10.20;99.90;;;;;;5052677;28;20202;-95
2022/12/24 07:53:46;;;;;;;2.17;0.98;;;10.20;99.90;;;;;;5034617;28;20203;-92
2022/12/24 07:56:17;;;;;;;1.85;0.95;;;10.20;99.90;;;;;;5033528;28;20245;-93
2022/12/24 07:58:45;;;;;;;1.17;1.05;;;10.30;99.90;;;;;;5033526;28;20206;-93
2022/12/24 08:01:13;;;;;;;1.13;0.90;;;10.30;99.90;;;;;;5049589;28;20204;-91
2022/12/24 08:03:41;;;;;;;1.77;1.33;;;10.40;99.90;;;;;;5053005;28;20194;-91
2022/12/24 08:06:10;;;;;;;0.80;0.80;;;10.50;99.90;;;;;;5052861;28;20221;-93
2022/12/24 08:08:39;;;;;;;2.17;1.25;;;10.50;99.90;;;;;;5052730;28;20285;-94
2022/12/24 08:11:08;;;;;;;2.42;1.23;;;10.50;99.90;;;;;;5053448;28;20198;-93
2022/12/24 08:13:38;;;;;;;1.10;1.00;;;10.50;99.90;;;;;;5052457;28;20261;-93
2022/12/24 08:16:07;;;;;;;0.70;0.70;;;10.50;99.90;;;;;;5052158;28;20256;-91
2022/12/24 08:18:35;;;;;;;1.05;0.95;;;10.50;99.90;;;;;;5052605;28;20209;-92
2022/12/24 08:21:06;;;;;;;1.77;1.35;;;10.50;99.90;;;;;;5051839;28;20205;-90
2022/12/24 08:23:35;;;;;;;1.13;1.02;;;10.50;99.90;;;;;;5053177;28;20255;-91
2022/12/24 08:26:06;;;;;;;1.02;1.00;;;10.50;99.90;;;;;;5052901;28;20253;-95
2022/12/24 08:28:35;;;;;;;1.08;0.82;;;10.50;99.90;;;;;;5052903;28;20224;-94
2022/12/24 08:31:06;;;;;;;1.48;1.08;;;10.40;99.90;;;;;;5052015;28;20204;-89
2022/12/24 08:33:35;;;;;;;2.65;1.20;;;10.40;99.90;;;;;;5052927;28;20258;-94
2022/12/24 08:36:04;;;;;;;2.15;1.08;;;10.30;99.90;;;;;;5052849;28;20320;-94
2022/12/24 08:38:33;;;;;;;2.28;1.63;;;10.30;99.90;;;;;;5052865;28;20214;-92
2022/12/24 08:41:01;;;;;;;1.38;1.20;;;10.30;99.90;;;;;;5052842;28;20226;-95
2022/12/24 08:43:30;;;;;;;1.48;1.15;;;10.30;99.90;;;;;;5052183;28;20226;-94
2022/12/24 08:46:04;;;;;;;1.63;1.45;;;10.30;99.90;;;;;;5052781;28;20268;-94
2022/12/24 08:48:34;;;;;;;1.50;1.40;;;10.30;99.90;;;;;;5052773;28;20271;-94
2022/12/24 08:51:07;;;;;;;1.35;1.25;;;10.30;99.90;;;;;;5048453;28;20290;-94
2022/12/24 08:53:35;;;;;;;1.30;1.20;;;10.40;99.90;;;;;;5052405;28;20263;-93
2022/12/24 08:56:04;;;;;;;0.90;0.90;;;10.40;99.90;;;;;;5054944;28;20316;-94
2022/12/24 08:58:33;;;;;;;1.40;1.08;;;10.50;99.90;;;;;;5055812;28;20288;-94
2022/12/24 09:01:02;;;;;;;2.75;1.50;;;10.50;99.90;;;;;;5056360;28;20206;-95
2022/12/24 09:03:32;;;;;;;1.75;1.40;;;10.60;99.90;;;;;;5055973;28;20269;-93
2022/12/24 09:06:03;;;;;;;2.80;1.42;;;10.60;99.90;;;;;;5055767;28;20230;-93
2022/12/24 09:08:32;;;;;;;2.05;1.73;;;10.60;99.90;;;;;;5055559;28;20210;-93
2022/12/24 09:11:04;;;;;;;1.60;1.27;;;10.60;99.90;;;;;;5055932;28;20293;-95
2022/12/24 09:13:32;;;;;;;1.33;1.13;;;10.70;99.90;;;;;;5056298;28;20300;-92
2022/12/24 09:16:01;;;;;;;1.17;1.15;;;10.70;99.90;;;;;;5055357;28;20248;-93
2022/12/24 09:19:00;;;;;;;0.98;0.98;;;10.70;99.90;;;;;;5055833;28;20213;-94
2022/12/24 09:21:31;;;;;;;2.95;1.17;;;10.80;99.90;;;;;;5055738;28;20217;-95
2022/12/24 09:24:00;;;;;;;2.58;1.80;;;10.80;99.90;;;;;;5055582;28;20206;-93
2022/12/24 09:26:30;;;;;;;2.13;1.40;;;10.90;99.90;;;;;;5055257;28;20214;-93
2022/12/24 09:29:00;;;;;;;1.45;1.00;;;10.90;99.90;;;;;;5055505;28;20210;-93
2022/12/24 09:31:29;;;;;;;1.33;1.20;;;11.00;99.90;;;;;;5055709;28;20204;-93
2022/12/24 09:33:57;;;;;;;1.27;1.17;;;11.10;99.90;;;;;;5055201;28;20206;-92
2022/12/24 09:36:27;;;;;;;1.02;0.93;;;11.20;99.90;;;;;;5055226;28;20210;-90
2022/12/24 09:38:55;;;;;;;2.70;1.60;;;11.30;99.90;;;;;;5055462;28;20296;-92
2022/12/24 09:41:35;;;;;;;0.93;0.93;;;11.30;99.90;;;;;;5055413;28;20204;-91
2022/12/24 09:44:14;;;;;;;0.88;0.88;;;11.40;99.90;;;;;;5054330;28;20212;-91
2022/12/24 09:46:47;;;;;;;1.30;1.20;;;11.40;99.90;;;;;;5055755;28;20240;-91
2022/12/24 09:49:40;;;;;;;2.15;1.50;;;11.50;99.90;;;;;;5055298;28;20424;-91
2022/12/24 09:52:12;;;;;;;5.25;1.48;;;11.50;99.90;;;;;;5055110;28;20210;-90
2022/12/24 09:54:44;;;;;;;2.55;0.93;;;11.50;99.90;;;;;;5054761;28;20221;-90
2022/12/24 09:57:28;;;;;;;1.30;1.10;;;11.60;99.90;;;;;;5055308;28;20228;-92
2022/12/24 09:59:56;;;;;;;2.45;0.98;;;11.70;99.90;;;;;;5055546;28;20194;-92
2022/12/24 10:02:24;;;;;;;0.95;0.95;;;11.80;99.90;;;;;;5054856;28;20206;-91
2022/12/24 10:04:54;;;;;;;1.40;1.08;;;11.80;99.90;;;;;;5054698;28;20217;-91
2022/12/24 10:07:38;;;;;;;2.05;1.38;;;11.90;99.90;;;;;;5053513;28;20208;-92
2022/12/24 10:10:19;;;;;;;1.67;1.02;;;12.00;99.90;;;;;;5054967;28;20213;-91
2022/12/24 10:12:57;;;;;;;1.05;1.05;;;12.10;99.90;;;;;;5054608;28;20201;-93
2022/12/24 10:15:30;;;;;;;2.47;1.60;;;12.30;99.90;;;;;;5054318;28;20214;-91
2022/12/24 10:18:17;;;;;;;2.33;1.85;;;12.30;99.90;;;;;;5054956;28;20209;-78
2022/12/24 10:20:52;;;;;;;1.92;1.35;;;12.40;99.90;;;;;;5054608;28;20194;-88
2022/12/24 10:23:27;;;;;;;2.28;1.75;;;12.70;99.90;;;;;;5054809;28;20201;-92
2022/12/24 10:26:08;;;;;;;1.60;1.10;;;12.90;99.90;;;;;;5054531;28;20308;-93
2022/12/24 10:28:44;;;;;;;3.08;1.52;;;13.10;99.90;;;;;;5054670;28;20202;-91
2022/12/24 10:31:13;;;;;;;1.40;1.30;;;13.60;99.90;;;;;;5053744;28;20213;-92
2022/12/24 10:33:43;;;;;;;1.65;1.35;;;13.90;99.90;;;;;;5054404;28;20213;-92
2022/12/24 10:36:17;;;;;;;1.23;1.13;;;14.10;99.90;;;;;;5054390;28;20292;-92
2022/12/24 10:38:47;;;;;;;1.38;1.05;;;14.40;99.90;;;;;;5054415;28;20197;-92
2022/12/24 10:41:16;;;;;;;1.58;1.30;;;14.60;99.90;;;;;;5054023;28;20197;-93
2022/12/24 10:43:46;;;;;;;2.30;1.40;;;14.60;99.90;;;;;;5053953;28;20217;-92
2022/12/24 10:46:20;;;;;;;3.60;2.03;;;14.80;99.90;;;;;;5050220;28;20230;-93
2022/12/24 10:48:53;;;;;;;1.70;1.60;;;15.10;99.90;;;;;;5054223;28;20204;-89
2022/12/24 10:51:29;;;;;;;2.45;1.67;;;15.40;99.90;;;;;;5045618;28;20226;-92
2022/12/24 10:54:06;;;;;;;1.58;1.45;;;15.40;99.90;;;;;;5035923;28;20216;-93
2022/12/24 10:56:41;;;;;;;2.38;1.65;;;15.30;99.90;;;;;;5040324;28;20202;-93
2022/12/24 10:59:24;;;;;;;2.42;1.73;;;15.50;99.90;;;;;;5054036;28;20204;-94
2022/12/24 11:01:54;;;;;;;1.70;1.42;;;15.50;99.90;;;;;;5053812;28;20288;-93
2022/12/24 11:04:24;;;;;;;1.60;1.50;;;15.80;99.90;;;;;;5053304;28;20248;-93
2022/12/24 11:06:54;;;;;;;1.70;1.40;;;15.70;99.90;;;;;;5040774;28;20269;-93
2022/12/24 11:09:26;;;;;;;3.42;2.03;;;15.70;99.90;;;;;;5053513;28;20190;-93
2022/12/24 11:11:57;;;;;;;2.33;1.48;;;15.60;99.90;;;;;;5049849;28;20264;-93
2022/12/24 11:14:34;;;;;;;2.22;1.38;;;15.40;99.90;;;;;;5052068;28;20225;-93
2022/12/24 11:17:03;;;;;;;1.40;1.30;;;15.50;99.90;;;;;;5051481;28;20289;-94
2022/12/24 11:19:34;;;;;;;2.65;1.05;;;15.70;99.90;;;;;;5052638;28;20217;-94
2022/12/24 11:22:05;;;;;;;3.03;1.45;;;15.80;99.90;;;;;;5051800;28;20226;-93
2022/12/24 11:24:37;;;;;;;2.95;1.83;;;15.70;99.90;;;;;;5052628;28;20264;-93
2022/12/24 11:27:30;;;;;;;1.65;1.52;;;15.60;99.90;;;;;;5052405;28;20272;-93
2022/12/24 11:30:21;;;;;;;1.20;1.10;;;15.50;99.90;;;;;;5053021;28;20228;-93
2022/12/24 11:32:51;;;;;;;2.10;1.33;;;15.50;99.90;;;;;;5044143;28;20201;-93
2022/12/24 11:35:23;;;;;;;2.05;1.75;;;15.70;99.90;;;;;;5044366;28;20295;-92
2022/12/24 11:38:10;;;;;;;1.40;1.08;;;15.50;99.90;;;;;;5052551;28;20242;-92
2022/12/24 11:40:43;;;;;;;3.08;1.85;;;15.40;99.90;;;;;;5052359;28;20312;-88
2022/12/24 11:43:15;;;;;;;2.22;1.58;;;15.30;99.90;;;;;;5052320;28;20264;-89
2022/12/24 11:45:49;;;;;;;1.48;1.38;;;15.10;99.90;;;;;;5051978;28;20240;-88
2022/12/24 11:48:27;;;;;;;1.77;1.25;;;14.70;99.90;;;;;;5051817;28;20202;-92
2022/12/24 11:51:00;;;;;;;1.50;1.40;;;14.20;99.90;;;;;;5051570;28;20202;-88
2022/12/24 11:53:36;;;;;;;5.13;1.48;;;13.90;99.90;;;;;;5052028;28;20209;-89
2022/12/24 11:56:15;;;;;;;3.13;1.90;;;13.50;99.90;;;;;;5052059;28;20221;-95
2022/12/24 11:58:48;;;;;;;1.98;1.60;;;13.40;99.90;;;;;;5052231;28;20209;-96
2022/12/24 12:01:21;;;;;;;2.92;1.98;;;13.30;99.90;;;;;;5052062;28;20283;-93
2022/12/24 12:03:54;;;;;;;3.45;1.75;;;13.10;99.90;;;;;;5052029;28;20212;-94
2022/12/24 12:06:31;;;;;;;2.80;1.88;;;12.90;99.90;;;;;;5051986;28;20212;-92
2022/12/24 12:09:02;;;;;;;2.10;1.67;;;12.80;99.90;;;;;;5051759;28;20201;-90
2022/12/24 12:11:33;;;;;;;2.30;1.60;;;12.70;99.90;;;;;;5052037;28;20206;-93
2022/12/24 12:14:04;;;;;;;1.58;1.48;;;12.60;99.90;;;;;;5051763;28;20207;-93
2022/12/24 12:17:03;;;;;;;1.92;1.30;;;12.50;99.90;;;;;;5052163;28;20222;-94
2022/12/24 12:19:38;;;;;;;1.20;1.10;;;12.50;99.90;;;;;;5052115;28;20299;-94
2022/12/24 12:22:11;;;;;;;1.85;1.10;;;12.50;99.90;;;;;;5051851;28;20304;-92
2022/12/24 12:24:48;;;;;;;1.55;1.45;;;12.70;99.90;;;;;;5051699;28;20285;-94
2022/12/24 12:27:27;;;;;;;2.40;1.55;;;12.90;99.90;;;;;;5045533;28;20279;-95
2022/12/24 12:30:00;;;;;;;1.98;1.20;;;13.00;99.90;;;;;;5041891;28;20193;-95
2022/12/24 12:32:42;;;;;;;1.50;1.40;;;12.90;99.90;;;;;;5041890;28;20249;-94
2022/12/24 12:35:21;;;;;;;2.22;1.23;;;12.70;99.90;;;;;;5043438;28;20298;-93
2022/12/24 12:37:57;;;;;;;1.60;1.27;;;12.50;99.90;;;;;;5043307;28;20257;-93
2022/12/24 12:40:39;;;;;;;1.30;1.20;;;12.30;99.90;;;;;;5037910;28;20202;-91
2022/12/24 12:43:16;;;;;;;1.58;1.13;;;12.20;99.90;;;;;;5040797;28;20285;-94
2022/12/24 12:45:50;;;;;;;0.85;0.85;;;12.30;99.90;;;;;;5045543;28;20226;-94
2022/12/24 12:48:39;;;;;;;1.80;1.20;;;12.60;99.90;;;;;;5045754;28;20205;-94
2022/12/24 12:51:12;;;;;;;1.63;1.35;;;12.70;99.90;;;;;;5045862;28;20201;-94
2022/12/24 12:53:52;;;;;;;1.23;1.10;;;12.70;99.90;;;;;;5042129;28;20202;-94
2022/12/24 12:56:30;;;;;;;0.80;0.80;;;12.80;99.90;;;;;;5050077;28;20312;-87
2022/12/24 12:59:04;;;;;;;1.50;1.10;;;13.10;99.90;;;;;;5054808;28;20220;-92
2022/12/24 13:01:41;;;;;;;0.95;0.95;;;13.30;99.90;;;;;;5055439;28;20232;-91
2022/12/24 13:04:46;;;;;;;5.82;1.63;;;13.20;99.90;;;;;;5046801;28;20193;-90
2022/12/24 13:07:41;;;;;;;1.67;1.45;;;13.10;99.90;;;;;;5055248;28;20214;-91
2022/12/24 13:10:45;;;;;;;0.90;0.90;;;13.20;99.90;;;;;;5053010;28;20209;-92
2022/12/24 13:13:41;;;;;;;0.80;0.80;;;13.20;99.90;;;;;;5055823;28;20216;-90
2022/12/24 13:16:37;;;;;;;1.30;1.02;;;13.30;99.90;;;;;;5053024;28;20228;-90
2022/12/24 13:19:17;;;;;;;0.75;0.75;;;13.10;99.90;;;;;;5055943;28;20206;-91
2022/12/24 13:21:48;;;;;;;2.13;1.10;;;13.00;99.90;;;;;;5055622;28;20316;-90